createdAt,value
2023-02-11T00:01:26.334Z,42.10
2023-02-11T00:03:55.481Z,33.80
2023-02-11T00:06:25.156Z,37.60
2023-02-11T00:08:54.424Z,42.60
2023-02-11T00:11:25.612Z,36.00
2023-02-11T00:13:54.075Z,18.00
2023-02-11T00:16:22.521Z,60.50
2023-02-11T00:18:53.178Z,70.60
2023-02-11T00:21:24.854Z,34.70
2023-02-11T00:23:55.048Z,52.60
2023-02-11T00:26:26.357Z,57.80
2023-02-11T00:28:55.168Z,59.30
2023-02-11T00:31:24.405Z,46.50
2023-02-11T00:33:53.610Z,29.60
2023-02-11T00:36:25.101Z,63.60
2023-02-11T00:38:55.051Z,36.00
2023-02-11T00:41:23.750Z,63.40
2023-02-11T00:43:53.376Z,52.30
2023-02-11T00:46:21.997Z,38.70
2023-02-11T00:48:51.955Z,59.10
2023-02-11T00:51:23.045Z,54.80
2023-02-11T00:53:52.001Z,73.70
2023-02-11T00:56:20.483Z,72.30
2023-02-11T00:58:48.931Z,64.00
2023-02-11T01:01:18.841Z,71.40
2023-02-11T01:03:48.178Z,42.40
2023-02-11T01:06:16.641Z,82.50
2023-02-11T01:08:45.181Z,65.00
2023-02-11T01:11:17.196Z,62.20
2023-02-11T01:13:48.398Z,53.00
2023-02-11T01:16:18.646Z,50.50
2023-02-11T01:18:47.322Z,58.00
2023-02-11T01:21:16.294Z,47.80
2023-02-11T01:23:44.981Z,56.50
2023-02-11T01:26:13.899Z,49.80
2023-02-11T01:28:42.292Z,67.10
2023-02-11T01:31:11.292Z,37.80
2023-02-11T01:33:39.815Z,74.50
2023-02-11T01:36:08.699Z,67.80
2023-02-11T01:38:37.425Z,62.10
2023-02-11T01:41:09.109Z,49.50
2023-02-11T01:43:42.601Z,64.60
2023-02-11T01:46:36.640Z,60.40
2023-02-11T01:49:11.713Z,47.90
2023-02-11T01:51:48.697Z,54.00
2023-02-11T01:54:40.325Z,45.30
2023-02-11T01:57:22.303Z,47.40
2023-02-11T01:59:53.581Z,27.90
2023-02-11T02:02:26.733Z,33.20
2023-02-11T02:05:08.341Z,43.70
2023-02-11T02:07:49.975Z,41.40
2023-02-11T02:10:23.496Z,32.30
2023-02-11T02:12:51.907Z,29.10
2023-02-11T02:15:22.802Z,24.20
2023-02-11T02:17:59.862Z,26.80
2023-02-11T02:20:34.265Z,24.60
2023-02-11T02:23:18.246Z,30.20
2023-02-11T02:26:08.230Z,30.50
2023-02-11T02:28:57.446Z,25.20
2023-02-11T02:32:06.994Z,21.50
2023-02-11T02:34:54.017Z,39.10
2023-02-11T02:37:32.863Z,30.50
2023-02-11T02:40:08.170Z,29.80
2023-02-11T02:42:38.060Z,22.90
2023-02-11T02:45:09.310Z,5.30
2023-02-11T02:47:37.831Z,3.10
2023-02-11T02:50:08.650Z,14.60
2023-02-11T02:52:46.844Z,50.60
2023-02-11T02:55:28.801Z,49.90
2023-02-11T02:58:43.457Z,30.50
2023-02-11T03:01:35.851Z,30.10
2023-02-11T03:04:09.066Z,38.60
2023-02-11T03:07:02.055Z,15.10
2023-02-11T03:09:51.796Z,17.10
2023-02-11T03:12:22.419Z,26.30
2023-02-11T03:14:52.979Z,33.60
2023-02-11T03:17:23.891Z,15.70
2023-02-11T03:19:52.285Z,32.30
2023-02-11T03:22:27.448Z,53.50
2023-02-11T03:24:56.941Z,41.70
2023-02-11T03:27:28.370Z,21.80
2023-02-11T03:30:22.862Z,48.90
2023-02-11T03:33:01.591Z,28.10
2023-02-11T03:35:36.184Z,47.00
2023-02-11T03:38:29.551Z,33.50
2023-02-11T03:43:42.202Z,25.40
2023-02-11T03:46:12.242Z,12.40
2023-02-11T03:48:44.925Z,37.80
2023-02-11T03:51:15.169Z,32.60
2023-02-11T03:53:46.257Z,28.70
2023-02-11T03:56:20.773Z,36.80
2023-02-11T03:58:49.305Z,26.00
2023-02-11T04:01:17.852Z,7.30
2023-02-11T04:03:46.181Z,35.50
2023-02-11T04:06:14.532Z,42.60
2023-02-11T04:08:42.818Z,36.50
2023-02-11T04:11:11.184Z,25.50
2023-02-11T04:13:39.444Z,41.60
2023-02-11T04:16:07.945Z,49.70
2023-02-11T04:18:36.347Z,15.30
2023-02-11T04:21:04.905Z,49.60
2023-02-11T04:23:33.250Z,41.40
2023-02-11T04:26:01.615Z,49.30
2023-02-11T04:28:30.104Z,56.30
2023-02-11T04:30:58.606Z,33.70
2023-02-11T04:33:27.303Z,36.90
2023-02-11T04:35:55.682Z,47.50
2023-02-11T04:38:26.715Z,36.60
2023-02-11T04:40:55.142Z,46.00
2023-02-11T04:43:23.485Z,37.50
2023-02-11T04:45:52.213Z,40.40
2023-02-11T04:48:20.795Z,22.30
2023-02-11T04:50:49.133Z,36.30
2023-02-11T04:53:17.481Z,29.10
2023-02-11T04:55:49.937Z,39.10
2023-02-11T04:58:19.163Z,22.20
2023-02-11T05:00:47.977Z,27.30
2023-02-11T05:03:16.840Z,45.60
2023-02-11T05:05:45.293Z,16.30
2023-02-11T05:08:13.995Z,42.40
2023-02-11T05:10:47.145Z,61.40
2023-02-11T05:13:16.337Z,41.40
2023-02-11T05:15:44.715Z,53.00
2023-02-11T05:18:15.140Z,47.20
2023-02-11T05:20:44.663Z,20.60
2023-02-11T05:23:13.087Z,44.30
2023-02-11T05:25:41.401Z,53.60
2023-02-11T05:28:09.864Z,52.00
2023-02-11T05:30:38.199Z,40.50
2023-02-11T05:33:06.641Z,47.30
2023-02-11T05:35:35.052Z,46.10
2023-02-11T05:38:03.355Z,39.10
2023-02-11T05:40:31.734Z,46.90
2023-02-11T05:43:00.162Z,45.30
2023-02-11T05:45:28.622Z,33.60
2023-02-11T05:47:58.140Z,17.40
2023-02-11T05:50:26.729Z,29.10
2023-02-11T05:52:55.068Z,12.50
2023-02-11T05:55:23.522Z,24.50
2023-02-11T05:57:51.867Z,20.70
2023-02-11T06:00:20.445Z,19.30
2023-02-11T06:02:48.951Z,42.20
2023-02-11T06:05:17.632Z,48.20
2023-02-11T06:07:46.327Z,40.00
2023-02-11T06:10:15.164Z,44.20
2023-02-11T06:12:43.478Z,38.30
2023-02-11T06:15:11.844Z,18.80
2023-02-11T06:17:40.191Z,38.10
2023-02-11T06:20:10.267Z,30.10
2023-02-11T06:22:38.653Z,42.80
2023-02-11T06:25:07.179Z,40.50
2023-02-11T06:27:35.529Z,40.60
2023-02-11T06:30:05.709Z,44.20
2023-02-11T06:32:49.366Z,46.10
2023-02-11T06:35:17.960Z,31.80
2023-02-11T06:37:47.124Z,41.50
2023-02-11T06:40:16.097Z,44.10
2023-02-11T06:42:44.498Z,58.80
2023-02-11T06:45:13.567Z,49.30
2023-02-11T06:47:42.200Z,64.70
2023-02-11T06:50:13.979Z,60.10
2023-02-11T06:52:42.392Z,59.20
2023-02-11T06:55:10.817Z,58.40
2023-02-11T06:57:39.186Z,67.60
2023-02-11T07:00:08.612Z,86.60
2023-02-11T07:02:37.055Z,63.40
2023-02-11T07:05:07.488Z,62.90
2023-02-11T07:07:36.625Z,70.30
2023-02-11T07:10:06.076Z,35.60
2023-02-11T07:12:34.554Z,60.90
2023-02-11T07:15:02.994Z,63.40
2023-02-11T07:17:31.469Z,48.70
2023-02-11T07:19:59.936Z,55.40
2023-02-11T07:22:29.224Z,66.70
2023-02-11T07:24:57.685Z,57.80
2023-02-11T07:27:27.281Z,28.10
2023-02-11T07:29:55.632Z,27.80
2023-02-11T07:32:24.594Z,33.20
2023-02-11T07:34:53.613Z,41.40
2023-02-11T07:37:23.005Z,39.80
2023-02-11T07:39:51.827Z,61.50
2023-02-11T07:42:20.405Z,51.20
2023-02-11T07:44:50.562Z,62.50
2023-02-11T07:47:19.688Z,55.60
2023-02-11T07:49:48.048Z,42.80
2023-02-11T07:52:16.432Z,17.90
2023-02-11T07:54:45.614Z,44.20
2023-02-11T07:57:14.045Z,20.90
2023-02-11T07:59:42.452Z,19.40
2023-02-11T08:02:13.190Z,44.50
2023-02-11T08:04:42.300Z,38.10
2023-02-11T08:07:10.680Z,50.80
2023-02-11T08:09:39.179Z,50.20
2023-02-11T08:12:07.653Z,67.80
2023-02-11T08:14:36.126Z,77.50
2023-02-11T08:17:06.675Z,98.00
2023-02-11T08:19:35.413Z,47.00
2023-02-11T08:22:04.627Z,66.00
2023-02-11T08:24:36.172Z,43.30
2023-02-11T08:27:04.602Z,38.90
2023-02-11T08:29:32.965Z,58.90
2023-02-11T08:32:01.282Z,60.90
2023-02-11T08:34:29.613Z,62.40
2023-02-11T08:36:57.940Z,50.20
2023-02-11T08:39:26.355Z,62.40
2023-02-11T08:41:56.974Z,67.10
2023-02-11T08:44:25.584Z,58.80
2023-02-11T08:46:54.247Z,55.70
2023-02-11T08:49:22.805Z,58.40
2023-02-11T08:51:51.393Z,28.30
2023-02-11T08:54:19.738Z,70.20
2023-02-11T08:56:51.779Z,42.10
2023-02-11T08:59:20.286Z,61.90
2023-02-11T09:01:49.858Z,32.50
2023-02-11T09:04:18.210Z,86.20
2023-02-11T09:06:54.064Z,58.10
2023-02-11T09:09:22.465Z,69.80
2023-02-11T09:11:50.863Z,95.60
2023-02-11T09:14:21.831Z,95.80
2023-02-11T09:16:51.844Z,65.60
2023-02-11T09:19:20.968Z,61.30
2023-02-11T09:21:49.646Z,79.60
2023-02-11T09:24:18.570Z,93.50
2023-02-11T09:26:47.083Z,80.20
2023-02-11T09:29:16.912Z,58.90
2023-02-11T09:31:45.962Z,53.30
2023-02-11T09:34:15.592Z,75.40
2023-02-11T09:36:44.280Z,60.40
2023-02-11T09:39:18.492Z,66.70
2023-02-11T09:42:07.756Z,53.30
2023-02-11T09:44:38.576Z,38.60
2023-02-11T09:47:12.981Z,52.30
2023-02-11T09:50:01.509Z,71.20
2023-02-11T09:52:29.872Z,59.50
2023-02-11T09:55:02.135Z,49.30
2023-02-11T09:57:37.695Z,57.70
2023-02-11T10:00:28.049Z,63.00
2023-02-11T10:03:25.682Z,46.30
2023-02-11T10:06:20.142Z,57.80
2023-02-11T10:09:07.526Z,55.90
2023-02-11T10:11:54.337Z,58.60
2023-02-11T10:15:04.266Z,52.40
2023-02-11T10:17:41.901Z,40.70
2023-02-11T10:20:33.710Z,50.30
2023-02-11T10:23:15.541Z,45.70
2023-02-11T10:25:46.753Z,63.60
2023-02-11T10:28:20.901Z,66.70
2023-02-11T10:30:55.671Z,63.50
2023-02-11T10:33:32.753Z,48.00
2023-02-11T10:36:01.074Z,58.80
2023-02-11T10:38:29.616Z,54.10
2023-02-11T10:40:57.986Z,53.90
2023-02-11T10:43:29.182Z,57.90
2023-02-11T10:45:59.310Z,58.10
2023-02-11T10:48:52.992Z,64.40
2023-02-11T10:51:21.491Z,62.70
2023-02-11T10:54:19.594Z,63.60
2023-02-11T10:56:58.729Z,55.20
2023-02-11T10:59:40.525Z,65.60
2023-02-11T11:02:32.230Z,66.60
2023-02-11T11:05:16.321Z,73.20
2023-02-11T11:07:56.972Z,56.90
2023-02-11T11:10:47.199Z,64.10
2023-02-11T11:13:29.773Z,68.10
2023-02-11T11:16:13.453Z,54.20
2023-02-11T11:18:46.936Z,60.80
2023-02-11T11:21:24.771Z,53.90
2023-02-11T11:23:57.294Z,58.40
2023-02-11T11:26:40.530Z,49.60
2023-02-11T11:29:16.286Z,64.60
2023-02-11T11:31:54.848Z,55.40
2023-02-11T11:34:34.213Z,61.60
2023-02-11T11:37:29.661Z,67.30
2023-02-11T11:39:57.923Z,62.60
2023-02-11T11:42:31.791Z,62.60
2023-02-11T11:45:19.770Z,57.00
2023-02-11T11:48:11.168Z,63.30
2023-02-11T11:50:50.236Z,61.40
2023-02-11T11:53:48.420Z,56.30
2023-02-11T11:56:21.367Z,66.10
2023-02-11T11:58:50.434Z,60.50
2023-02-11T12:01:39.595Z,66.80
2023-02-11T12:04:25.839Z,53.40
2023-02-11T12:07:09.341Z,62.70
2023-02-11T12:09:55.506Z,62.70
2023-02-11T12:12:48.654Z,53.00
2023-02-11T12:15:44.643Z,50.60
2023-02-11T12:18:38.244Z,62.70
2023-02-11T12:23:53.504Z,56.30
2023-02-11T12:26:36.148Z,53.30
2023-02-11T12:29:29.451Z,59.20
2023-02-11T12:32:10.616Z,62.30
2023-02-11T12:34:42.022Z,59.40
2023-02-11T12:37:30.978Z,67.20
2023-02-11T12:40:20.580Z,55.30
2023-02-11T12:43:11.926Z,63.20
2023-02-11T12:46:07.930Z,66.90
2023-02-11T12:49:05.190Z,51.30
2023-02-11T12:51:36.462Z,58.50
2023-02-11T12:54:31.387Z,57.10
2023-02-11T12:57:02.381Z,57.20
2023-02-11T13:00:02.878Z,51.20
2023-02-11T13:02:54.638Z,63.00
2023-02-11T13:06:07.590Z,50.80
2023-02-11T13:08:40.626Z,51.90
2023-02-11T13:11:15.182Z,48.20
2023-02-11T13:13:46.221Z,57.90
2023-02-11T13:16:31.077Z,51.30
2023-02-11T13:19:23.763Z,50.00
2023-02-11T13:22:07.061Z,42.30
2023-02-11T13:24:48.098Z,47.50
2023-02-11T13:27:19.383Z,50.70
2023-02-11T13:30:21.899Z,48.90
2023-02-11T13:32:56.481Z,42.50
2023-02-11T13:35:33.039Z,58.20
2023-02-11T13:38:06.134Z,59.30
2023-02-11T13:43:21.804Z,70.00
2023-02-11T13:48:24.236Z,69.60
2023-02-11T13:50:57.515Z,62.70
2023-02-11T13:53:27.597Z,52.70
2023-02-11T13:56:12.375Z,61.70
2023-02-11T13:58:48.444Z,64.20
2023-02-11T14:01:42.649Z,63.60
2023-02-11T14:04:44.462Z,63.20
2023-02-11T14:07:50.980Z,63.50
2023-02-11T14:10:41.177Z,51.70
2023-02-11T14:13:30.229Z,62.00
2023-02-11T14:16:13.656Z,58.00
2023-02-11T14:21:19.372Z,70.70
2023-02-11T14:23:48.043Z,64.30
2023-02-11T14:26:22.198Z,51.20
2023-02-11T14:28:59.519Z,59.10
2023-02-11T14:31:36.396Z,55.90
2023-02-11T14:34:23.243Z,56.40
2023-02-11T14:37:02.773Z,62.70
2023-02-11T14:40:14.086Z,55.20
2023-02-11T14:42:42.624Z,57.40
2023-02-11T14:45:18.893Z,56.20
2023-02-11T14:47:56.272Z,61.50
2023-02-11T14:50:32.155Z,54.80
2023-02-11T14:53:02.781Z,55.80
2023-02-11T14:55:37.053Z,62.10
2023-02-11T14:58:28.325Z,54.60
2023-02-11T15:01:12.232Z,52.10
2023-02-11T15:03:43.130Z,57.70
2023-02-11T15:06:19.336Z,66.00
2023-02-11T15:08:55.438Z,55.80
2023-02-11T15:11:25.755Z,64.10
2023-02-11T15:13:57.115Z,57.00
2023-02-11T15:16:28.632Z,61.90
2023-02-11T15:19:01.684Z,68.20
2023-02-11T15:21:32.815Z,49.00
2023-02-11T15:24:20.057Z,54.90
2023-02-11T15:27:08.620Z,59.50
2023-02-11T15:29:50.801Z,57.60
2023-02-11T15:32:22.035Z,64.40
2023-02-11T15:34:52.946Z,63.50
2023-02-11T15:37:32.661Z,58.70
2023-02-11T15:40:21.337Z,60.10
2023-02-11T15:43:02.875Z,62.20
2023-02-11T15:45:41.598Z,59.60
2023-02-11T15:48:16.036Z,80.10
2023-02-11T15:50:52.915Z,73.70
2023-02-11T15:53:31.543Z,63.00
2023-02-11T15:56:19.433Z,76.00
2023-02-11T15:58:49.845Z,74.30
2023-02-11T16:01:18.405Z,77.10
2023-02-11T16:03:50.498Z,66.40
2023-02-11T16:06:26.578Z,70.40
2023-02-11T16:09:05.506Z,69.20
2023-02-11T16:11:38.519Z,76.40
2023-02-11T16:16:57.755Z,76.80
2023-02-11T16:19:27.745Z,82.00
2023-02-11T16:21:58.869Z,83.30
2023-02-11T16:24:35.369Z,105.40
2023-02-11T16:27:07.939Z,102.30
2023-02-11T16:29:37.969Z,90.90
2023-02-11T16:32:09.985Z,87.10
2023-02-11T16:34:41.110Z,83.10
2023-02-11T16:37:09.789Z,97.20
2023-02-11T16:39:38.241Z,89.80
2023-02-11T16:42:09.407Z,94.00
2023-02-11T16:44:38.268Z,84.80
2023-02-11T16:47:23.840Z,92.70
2023-02-11T16:49:52.623Z,78.90
2023-02-11T16:52:21.960Z,71.40
2023-02-11T16:54:50.294Z,72.50
2023-02-11T16:57:24.369Z,89.30
2023-02-11T16:59:52.945Z,72.80
2023-02-11T17:02:24.156Z,85.60
2023-02-11T17:04:54.181Z,73.50
2023-02-11T17:07:22.670Z,77.80
2023-02-11T17:09:52.318Z,67.20
2023-02-11T17:12:21.677Z,68.50
2023-02-11T17:14:50.094Z,67.30
2023-02-11T17:17:22.861Z,73.90
2023-02-11T17:22:19.884Z,81.00
2023-02-11T17:24:48.177Z,82.60
2023-02-11T17:27:17.379Z,86.30
2023-02-11T17:29:45.838Z,82.90
2023-02-11T17:32:14.267Z,94.10
2023-02-11T17:34:42.678Z,94.70
2023-02-11T17:37:11.121Z,95.50
2023-02-11T17:39:40.600Z,97.20
2023-02-11T17:42:08.979Z,115.10
2023-02-11T17:44:38.104Z,40.40
2023-02-11T17:47:06.477Z,69.40
2023-02-11T17:49:34.864Z,70.90
2023-02-11T17:52:03.213Z,67.60
2023-02-11T17:54:31.516Z,76.90
2023-02-11T17:56:59.850Z,40.80
2023-02-11T17:59:31.827Z,51.40
2023-02-11T18:02:00.113Z,97.90
2023-02-11T18:04:28.725Z,71.50
2023-02-11T18:06:58.028Z,76.40
2023-02-11T18:09:26.787Z,59.90
2023-02-11T18:11:55.315Z,83.80
2023-02-11T18:14:23.671Z,65.90
2023-02-11T18:16:52.697Z,53.70
2023-02-11T18:19:21.190Z,78.40
2023-02-11T18:21:51.093Z,81.60
2023-02-11T18:24:19.530Z,87.60
2023-02-11T18:26:47.944Z,115.80
2023-02-11T18:29:16.319Z,146.20
2023-02-11T18:31:44.755Z,107.70
2023-02-11T18:34:13.426Z,104.10
2023-02-11T18:36:41.865Z,81.90
2023-02-11T18:39:10.250Z,91.40
2023-02-11T18:41:40.873Z,86.40
2023-02-11T18:44:10.999Z,93.70
2023-02-11T18:46:39.338Z,81.90
2023-02-11T18:49:07.730Z,93.10
2023-02-11T18:51:36.041Z,79.10
2023-02-11T18:54:04.614Z,67.40
2023-02-11T18:56:33.035Z,101.30
2023-02-11T18:59:01.542Z,82.20
2023-02-11T19:01:32.003Z,82.90
2023-02-11T19:04:03.619Z,85.90
2023-02-11T19:06:36.451Z,76.10
2023-02-11T19:09:08.038Z,90.10
2023-02-11T19:11:49.109Z,95.40
2023-02-11T19:14:22.797Z,87.90
2023-02-11T19:16:53.800Z,88.40
2023-02-11T19:19:24.152Z,94.90
2023-02-11T19:21:52.658Z,87.00
2023-02-11T19:24:23.079Z,80.70
2023-02-11T19:26:53.239Z,96.60
2023-02-11T19:29:21.559Z,83.20
2023-02-11T19:31:50.169Z,83.50
2023-02-11T19:34:22.277Z,85.40
2023-02-11T19:36:51.310Z,82.80
2023-02-11T19:39:19.702Z,86.30
2023-02-11T19:41:48.123Z,81.60
2023-02-11T19:44:16.842Z,103.70
2023-02-11T19:46:46.204Z,89.80
2023-02-11T19:49:23.202Z,93.60
2023-02-11T19:51:55.562Z,101.80
2023-02-11T19:54:26.466Z,99.90
2023-02-11T19:56:55.227Z,91.00
2023-02-11T19:59:24.031Z,87.00
2023-02-11T20:01:54.051Z,97.90
2023-02-11T20:04:24.310Z,102.70
2023-02-11T20:06:52.708Z,99.70
2023-02-11T20:09:21.820Z,96.10
2023-02-11T20:11:50.294Z,93.10
2023-02-11T20:14:19.314Z,88.30
2023-02-11T20:16:49.733Z,87.40
2023-02-11T20:19:21.918Z,92.40
2023-02-11T20:21:53.790Z,99.60
2023-02-11T20:24:23.120Z,106.90
2023-02-11T20:26:55.768Z,99.30
2023-02-11T20:31:54.632Z,94.00
2023-02-11T20:34:23.435Z,104.10
2023-02-11T20:36:52.407Z,107.50
2023-02-11T20:39:22.952Z,106.00
2023-02-11T20:41:51.690Z,101.30
2023-02-11T20:44:22.497Z,101.00
2023-02-11T20:46:51.712Z,102.20
2023-02-11T20:49:23.174Z,103.40
2023-02-11T20:51:53.971Z,115.50
2023-02-11T20:54:23.972Z,113.30
2023-02-11T20:56:54.101Z,126.90
2023-02-11T20:59:23.107Z,116.80
2023-02-11T21:01:55.401Z,127.30
2023-02-11T21:04:29.828Z,116.20
2023-02-11T21:07:01.344Z,121.40
2023-02-11T21:09:31.623Z,111.30
2023-02-11T21:12:00.619Z,106.40
2023-02-11T21:14:29.566Z,116.20
2023-02-11T21:16:58.280Z,115.80
2023-02-11T21:19:27.004Z,122.00
2023-02-11T21:21:57.393Z,117.40
2023-02-11T21:24:25.870Z,121.20
2023-02-11T21:26:54.876Z,118.20
2023-02-11T21:29:23.250Z,109.70
2023-02-11T21:31:51.706Z,113.50
2023-02-11T21:34:20.902Z,108.60
2023-02-11T21:36:51.305Z,118.40
2023-02-11T21:39:20.542Z,119.80
2023-02-11T21:41:49.074Z,110.00
2023-02-11T21:44:17.925Z,122.40
2023-02-11T21:46:46.327Z,120.10
2023-02-11T21:49:14.760Z,115.20
2023-02-11T21:51:43.079Z,119.50
2023-02-11T21:54:12.002Z,128.90
2023-02-11T21:56:40.825Z,120.20
2023-02-11T21:59:13.539Z,109.60
2023-02-11T22:01:41.891Z,114.10
2023-02-11T22:04:10.230Z,108.20
2023-02-11T22:06:39.241Z,118.70
2023-02-11T22:09:09.502Z,131.80
2023-02-11T22:11:38.148Z,124.90
2023-02-11T22:14:06.942Z,119.70
2023-02-11T22:16:35.401Z,114.10
2023-02-11T22:19:03.968Z,131.40
2023-02-11T22:21:32.259Z,127.80
2023-02-11T22:24:00.678Z,127.30
2023-02-11T22:26:29.180Z,130.20
2023-02-11T22:28:57.591Z,138.40
2023-02-11T22:31:32.037Z,132.90
2023-02-11T22:34:03.672Z,129.90
2023-02-11T22:36:37.513Z,140.20
2023-02-11T22:39:09.622Z,138.20
2023-02-11T22:41:40.038Z,126.50
2023-02-11T22:44:09.410Z,136.20
2023-02-11T22:46:38.100Z,149.70
2023-02-11T22:49:07.517Z,140.10
2023-02-11T22:51:35.900Z,122.10
2023-02-11T22:54:06.315Z,138.40
2023-02-11T22:56:35.426Z,140.80
2023-02-11T22:59:07.474Z,147.30
2023-02-11T23:01:35.899Z,135.30
2023-02-11T23:04:06.834Z,123.90
2023-02-11T23:06:35.574Z,124.50
2023-02-11T23:09:05.964Z,111.10
2023-02-11T23:11:35.571Z,122.50
2023-02-11T23:14:04.204Z,129.40
2023-02-11T23:16:34.553Z,115.80
2023-02-11T23:19:06.876Z,111.80
2023-02-11T23:21:38.013Z,111.50
2023-02-11T23:24:11.299Z,101.60
2023-02-11T23:26:40.882Z,111.40
2023-02-11T23:29:10.065Z,101.40
2023-02-11T23:31:40.987Z,115.20
2023-02-11T23:34:09.666Z,112.70
2023-02-11T23:36:38.151Z,118.30
2023-02-11T23:39:06.686Z,98.60
2023-02-11T23:41:34.973Z,117.40
2023-02-11T23:44:03.327Z,99.50
2023-02-11T23:46:31.607Z,106.40
2023-02-11T23:49:00.114Z,101.70
2023-02-11T23:51:28.438Z,106.20
2023-02-11T23:53:56.883Z,98.80
2023-02-11T23:56:27.509Z,112.70
2023-02-11T23:58:58.278Z,113.70
